createdAt,value
2022-11-02T00:01:25.765Z,6.64
2022-11-02T00:03:52.388Z,6.65
2022-11-02T00:06:18.980Z,6.59
2022-11-02T00:08:45.967Z,6.57
2022-11-02T00:11:12.634Z,6.59
2022-11-02T00:13:39.310Z,6.61
2022-11-02T00:16:10.770Z,6.58
2022-11-02T00:18:38.071Z,6.58
2022-11-02T00:21:05.198Z,6.59
2022-11-02T00:23:32.407Z,6.53
2022-11-02T00:26:02.542Z,6.52
2022-11-02T00:28:30.794Z,6.51
2022-11-02T00:30:57.754Z,6.53
2022-11-02T00:33:24.526Z,6.48
2022-11-02T00:35:51.162Z,6.45
2022-11-02T00:38:17.767Z,6.41
2022-11-02T00:40:44.490Z,6.43
2022-11-02T00:43:11.102Z,6.38
2022-11-02T00:45:37.683Z,6.37
2022-11-02T00:48:05.192Z,6.37
2022-11-02T00:50:32.415Z,6.32
2022-11-02T00:52:59.017Z,6.31
2022-11-02T00:55:25.783Z,6.31
2022-11-02T00:57:54.019Z,6.27
2022-11-02T01:00:20.591Z,6.29
2022-11-02T01:02:47.281Z,6.28
2022-11-02T01:05:13.962Z,6.23
2022-11-02T01:07:40.724Z,6.22
2022-11-02T01:10:09.113Z,6.24
2022-11-02T01:12:40.370Z,6.23
2022-11-02T01:15:08.468Z,6.23
2022-11-02T01:17:35.344Z,6.22
2022-11-02T01:20:02.106Z,6.25
2022-11-02T01:22:28.722Z,6.20
2022-11-02T01:24:55.591Z,6.18
2022-11-02T01:27:22.523Z,6.19
2022-11-02T01:29:49.121Z,6.20
2022-11-02T01:32:15.719Z,6.17
2022-11-02T01:34:42.353Z,6.16
2022-11-02T01:37:10.224Z,6.10
2022-11-02T01:39:36.833Z,6.07
2022-11-02T01:42:03.594Z,6.10
2022-11-02T01:44:35.625Z,6.07
2022-11-02T01:47:27.033Z,6.09
2022-11-02T01:50:06.615Z,6.12
2022-11-02T01:52:36.463Z,6.14
2022-11-02T01:55:16.690Z,6.18
2022-11-02T01:57:48.257Z,6.12
2022-11-02T02:00:16.727Z,6.11
2022-11-02T02:02:53.620Z,6.10
2022-11-02T02:05:23.008Z,6.07
2022-11-02T02:07:50.473Z,6.07
2022-11-02T02:10:17.252Z,6.09
2022-11-02T02:12:44.306Z,6.02
2022-11-02T02:15:12.785Z,6.05
2022-11-02T02:17:57.426Z,6.00
2022-11-02T02:20:46.819Z,6.12
2022-11-02T02:23:32.149Z,6.13
2022-11-02T02:26:07.914Z,6.16
2022-11-02T02:28:52.102Z,6.17
2022-11-02T02:31:22.423Z,6.18
2022-11-02T02:34:04.910Z,6.16
2022-11-02T02:36:34.793Z,6.16
2022-11-02T02:39:14.706Z,6.12
2022-11-02T02:41:47.741Z,6.12
2022-11-02T02:44:22.046Z,6.08
2022-11-02T02:47:27.879Z,6.06
2022-11-02T02:49:59.210Z,6.03
2022-11-02T02:52:29.034Z,6.05
2022-11-02T02:54:59.495Z,6.05
2022-11-02T02:57:30.606Z,6.05
2022-11-02T02:59:57.198Z,6.05
2022-11-02T03:02:38.065Z,6.02
2022-11-02T03:05:24.182Z,6.01
2022-11-02T03:07:51.071Z,6.01
2022-11-02T03:10:42.093Z,6.00
2022-11-02T03:13:14.770Z,5.99
2022-11-02T03:15:54.856Z,6.01
2022-11-02T03:18:27.629Z,6.08
2022-11-02T03:21:26.146Z,6.14
2022-11-02T03:24:06.418Z,6.15
2022-11-02T03:26:43.419Z,6.18
2022-11-02T03:29:17.091Z,6.18
2022-11-02T03:31:48.238Z,6.21
2022-11-02T03:34:30.515Z,6.25
2022-11-02T03:37:11.900Z,6.28
2022-11-02T03:39:47.075Z,6.30
2022-11-02T03:42:18.994Z,6.31
2022-11-02T03:44:49.423Z,6.31
2022-11-02T03:47:20.118Z,6.27
2022-11-02T03:49:50.285Z,6.24
2022-11-02T03:52:24.535Z,6.24
2022-11-02T03:54:58.161Z,6.21
2022-11-02T03:57:33.102Z,6.19
2022-11-02T04:00:11.433Z,6.19
2022-11-02T04:02:41.355Z,6.17
2022-11-02T04:05:08.362Z,6.16
2022-11-02T04:07:59.408Z,6.10
2022-11-02T04:10:26.395Z,6.12
2022-11-02T04:13:11.799Z,6.15
2022-11-02T04:15:38.424Z,6.12
2022-11-02T04:18:23.534Z,6.11
2022-11-02T04:20:51.020Z,6.13
2022-11-02T04:23:36.870Z,6.16
2022-11-02T04:26:04.697Z,6.12
2022-11-02T04:28:31.305Z,6.08
2022-11-02T04:31:01.046Z,6.11
2022-11-02T04:33:33.660Z,6.08
2022-11-02T04:36:01.758Z,6.07
2022-11-02T04:38:42.003Z,6.05
2022-11-02T04:41:27.215Z,6.05
2022-11-02T04:43:54.426Z,6.03
2022-11-02T04:46:22.960Z,6.07
2022-11-02T04:48:49.905Z,6.18
2022-11-02T04:51:16.700Z,6.13
2022-11-02T04:53:43.363Z,6.09
2022-11-02T04:56:10.115Z,6.11
2022-11-02T04:58:36.741Z,6.11
2022-11-02T05:01:14.258Z,6.14
2022-11-02T05:03:41.746Z,6.12
2022-11-02T05:06:11.150Z,6.10
2022-11-02T05:08:38.297Z,6.11
2022-11-02T05:11:05.579Z,6.08
2022-11-02T05:13:34.878Z,6.14
2022-11-02T05:16:01.992Z,6.11
2022-11-02T05:18:29.799Z,6.15
2022-11-02T05:21:04.940Z,6.19
2022-11-02T05:23:31.882Z,6.21
2022-11-02T05:26:03.597Z,6.22
2022-11-02T05:28:33.925Z,6.25
2022-11-02T05:31:10.004Z,6.20
2022-11-02T05:33:40.131Z,6.24
2022-11-02T05:36:11.845Z,6.22
2022-11-02T05:38:41.609Z,6.24
2022-11-02T05:41:09.895Z,6.21
2022-11-02T05:43:44.171Z,6.26
2022-11-02T05:46:17.691Z,6.21
2022-11-02T05:48:44.781Z,6.24
2022-11-02T05:51:14.763Z,6.16
2022-11-02T05:53:41.857Z,6.17
2022-11-02T05:56:13.671Z,6.13
2022-11-02T05:58:43.505Z,6.13
2022-11-02T06:01:16.985Z,6.12
2022-11-02T06:03:53.714Z,6.07
2022-11-02T06:06:22.638Z,6.08
2022-11-02T06:08:49.436Z,6.04
2022-11-02T06:11:17.542Z,6.04
2022-11-02T06:13:45.470Z,6.00
2022-11-02T06:16:21.493Z,6.10
2022-11-02T06:18:49.976Z,6.11
2022-11-02T06:21:16.932Z,6.15
2022-11-02T06:23:43.900Z,6.25
2022-11-02T06:26:12.786Z,6.33
2022-11-02T06:28:39.588Z,6.33
2022-11-02T06:31:06.574Z,6.38
2022-11-02T06:33:33.455Z,6.40
2022-11-02T06:36:03.238Z,6.46
2022-11-02T06:38:30.032Z,6.49
2022-11-02T06:41:07.037Z,6.61
2022-11-02T06:43:36.499Z,6.72
2022-11-02T06:46:03.399Z,6.77
2022-11-02T06:48:34.965Z,6.87
2022-11-02T06:51:03.004Z,6.88
2022-11-02T06:53:33.590Z,6.89
2022-11-02T06:56:06.640Z,7.03
2022-11-02T06:58:33.400Z,6.97
2022-11-02T07:01:02.943Z,7.01
2022-11-02T07:03:30.798Z,7.07
2022-11-02T07:06:14.432Z,7.22
2022-11-02T07:09:00.509Z,7.24
2022-11-02T07:11:48.129Z,7.28
2022-11-02T07:14:21.387Z,7.27
2022-11-02T07:17:00.731Z,7.48
2022-11-02T07:19:27.843Z,7.55
2022-11-02T07:21:55.023Z,7.79
2022-11-02T07:24:22.342Z,7.93
2022-11-02T07:26:53.169Z,8.12
2022-11-02T07:29:25.485Z,8.40
2022-11-02T07:31:56.530Z,8.70
2022-11-02T07:34:33.339Z,8.77
2022-11-02T07:37:08.741Z,8.99
2022-11-02T07:39:38.049Z,9.34
2022-11-02T07:42:08.113Z,9.61
2022-11-02T07:44:35.088Z,9.89
2022-11-02T07:47:07.518Z,9.99
2022-11-02T07:49:39.449Z,10.41
2022-11-02T07:52:14.430Z,10.35
2022-11-02T07:54:49.872Z,10.43
2022-11-02T07:57:22.405Z,10.69
2022-11-02T08:00:03.940Z,10.81
2022-11-02T08:02:33.646Z,10.86
2022-11-02T08:08:23.545Z,10.09
2022-11-02T08:10:59.157Z,10.58
2022-11-02T08:13:34.181Z,10.47
2022-11-02T08:16:10.024Z,10.35
2022-11-02T08:18:57.537Z,10.29
2022-11-02T08:21:54.911Z,10.25
2022-11-02T08:24:29.454Z,10.28
2022-11-02T08:27:04.009Z,10.39
2022-11-02T08:29:53.143Z,10.21
2022-11-02T08:32:38.924Z,10.26
2022-11-02T08:35:15.658Z,10.33
2022-11-02T08:37:45.911Z,10.42
2022-11-02T08:40:25.959Z,10.49
2022-11-02T08:48:43.737Z,10.41
2022-11-02T08:51:17.969Z,10.38
2022-11-02T08:54:05.489Z,10.26
2022-11-02T08:56:38.686Z,10.40
2022-11-02T08:59:24.488Z,10.68
2022-11-02T09:02:14.191Z,10.99
2022-11-02T09:04:52.725Z,11.20
2022-11-02T09:07:43.757Z,10.98
2022-11-02T09:13:08.353Z,12.04
2022-11-02T09:15:54.342Z,12.42
2022-11-02T09:19:11.233Z,12.90
2022-11-02T09:22:16.683Z,12.80
2022-11-02T09:25:10.516Z,13.06
2022-11-02T09:28:17.443Z,13.35
2022-11-02T09:30:58.090Z,13.68
2022-11-02T09:34:07.572Z,13.79
2022-11-02T09:37:22.487Z,13.77
2022-11-02T09:43:54.780Z,13.99
2022-11-02T09:46:45.280Z,14.07
2022-11-02T09:49:33.839Z,14.65
2022-11-02T09:52:15.026Z,14.36
2022-11-02T09:55:04.694Z,14.75
2022-11-02T10:04:19.123Z,14.75
2022-11-02T10:07:54.084Z,15.09
2022-11-02T10:19:40.183Z,14.97
2022-11-02T10:22:35.760Z,14.88
2022-11-02T10:25:24.785Z,14.97
2022-11-02T10:28:40.686Z,15.51
2022-11-02T10:31:30.508Z,15.60
2022-11-02T10:35:34.018Z,15.44
2022-11-02T10:37:36.453Z,15.74
2022-11-02T10:47:18.836Z,15.95
2022-11-02T10:50:23.474Z,15.46
2022-11-02T10:52:50.291Z,15.80
2022-11-02T10:55:32.313Z,16.30
2022-11-02T10:58:04.280Z,16.18
2022-11-02T11:00:34.740Z,16.19
2022-11-02T11:03:09.139Z,16.33
2022-11-02T11:05:59.563Z,15.77
2022-11-02T11:08:49.879Z,15.69
2022-11-02T11:11:30.414Z,15.33
2022-11-02T11:16:57.055Z,14.97
2022-11-02T11:19:41.769Z,14.97
2022-11-02T11:22:27.795Z,14.90
2022-11-02T11:25:27.037Z,14.67
2022-11-02T11:27:59.643Z,14.67
2022-11-02T11:33:23.298Z,14.51
2022-11-02T11:35:55.016Z,14.50
2022-11-02T11:41:13.344Z,14.27
2022-11-02T11:43:48.250Z,14.08
2022-11-02T11:46:33.531Z,14.17
2022-11-02T11:49:04.790Z,14.23
2022-11-02T11:51:41.567Z,14.18
2022-11-02T11:54:27.044Z,13.98
2022-11-02T11:56:58.858Z,14.09
2022-11-02T11:59:47.167Z,14.15
2022-11-02T12:02:27.785Z,14.31
2022-11-02T12:05:15.377Z,14.20
2022-11-02T12:08:19.789Z,14.20
2022-11-02T12:10:52.436Z,14.23
2022-11-02T12:13:46.841Z,14.23
2022-11-02T12:16:31.444Z,14.18
2022-11-02T12:19:15.683Z,14.16
2022-11-02T12:21:59.823Z,13.97
2022-11-02T12:24:59.200Z,13.84
2022-11-02T12:27:37.057Z,13.82
2022-11-02T12:30:20.811Z,13.89
2022-11-02T12:33:30.683Z,13.86
2022-11-02T12:36:16.201Z,13.93
2022-11-02T12:39:00.183Z,14.00
2022-11-02T12:41:45.492Z,14.07
2022-11-02T12:44:31.104Z,13.90
2022-11-02T12:47:04.177Z,13.97
2022-11-02T13:00:20.749Z,13.65
2022-11-02T13:29:19.682Z,14.38
2022-11-02T13:38:51.583Z,14.40
2022-11-02T14:17:10.169Z,14.00
2022-11-02T14:23:11.883Z,14.14
2022-11-02T14:25:47.689Z,13.98
2022-11-02T14:28:20.009Z,14.01
2022-11-02T14:31:08.006Z,13.84
2022-11-02T14:33:49.644Z,13.79
2022-11-02T14:36:16.270Z,13.68
2022-11-02T14:38:42.798Z,13.49
2022-11-02T14:41:46.807Z,13.53
2022-11-02T14:44:37.926Z,13.35
2022-11-02T14:47:13.669Z,13.15
2022-11-02T14:49:47.493Z,13.01
2022-11-02T14:52:14.028Z,13.24
2022-11-02T14:55:06.317Z,13.18
2022-11-02T14:57:42.831Z,13.20
2022-11-02T15:00:35.271Z,13.17
2022-11-02T15:03:02.994Z,12.97
2022-11-02T15:05:36.520Z,12.72
2022-11-02T15:08:08.323Z,12.78
2022-11-02T15:10:41.683Z,12.80
2022-11-02T15:13:20.737Z,12.57
2022-11-02T15:15:50.398Z,12.71
2022-11-02T15:18:31.535Z,12.60
2022-11-02T15:21:13.037Z,12.61
2022-11-02T15:24:15.548Z,12.42
2022-11-02T15:26:59.044Z,12.47
2022-11-02T15:29:28.618Z,12.35
2022-11-02T15:31:57.995Z,12.23
2022-11-02T15:34:41.774Z,11.95
2022-11-02T15:37:12.922Z,11.76
2022-11-02T15:39:39.586Z,11.93
2022-11-02T15:42:41.449Z,11.66
2022-11-02T15:45:26.823Z,11.66
2022-11-02T15:48:09.827Z,11.67
2022-11-02T15:51:04.496Z,11.75
2022-11-02T15:53:41.298Z,11.66
2022-11-02T15:56:16.930Z,11.47
2022-11-02T15:58:53.524Z,11.28
2022-11-02T16:01:25.646Z,11.12
2022-11-02T16:03:58.747Z,10.96
2022-11-02T16:06:31.981Z,11.09
2022-11-02T16:09:02.743Z,11.31
2022-11-02T16:11:29.749Z,11.02
2022-11-02T16:14:16.232Z,10.89
2022-11-02T16:16:47.830Z,10.81
2022-11-02T16:19:21.699Z,11.04
2022-11-02T16:21:50.945Z,10.78
2022-11-02T16:24:19.154Z,10.56
2022-11-02T16:26:47.168Z,10.41
2022-11-02T16:29:26.863Z,10.27
2022-11-02T16:31:53.559Z,10.10
2022-11-02T16:34:24.140Z,10.03
2022-11-02T16:36:51.129Z,10.00
2022-11-02T16:39:22.692Z,9.94
2022-11-02T16:41:55.930Z,9.98
2022-11-02T16:44:30.713Z,9.97
2022-11-02T16:47:00.424Z,9.76
2022-11-02T16:49:28.602Z,9.67
2022-11-02T16:52:00.434Z,9.63
2022-11-02T16:54:40.733Z,9.76
2022-11-02T16:57:25.108Z,9.59
2022-11-02T17:00:05.060Z,9.56
2022-11-02T17:02:36.763Z,9.45
2022-11-02T17:05:06.829Z,9.41
2022-11-02T17:07:40.796Z,9.27
2022-11-02T17:10:09.340Z,9.12
2022-11-02T17:12:41.979Z,9.04
2022-11-02T17:15:19.339Z,8.87
2022-11-02T17:17:46.504Z,8.73
2022-11-02T17:20:15.982Z,8.61
2022-11-02T17:22:53.318Z,8.48
2022-11-02T17:25:21.519Z,8.36
2022-11-02T17:27:49.078Z,8.28
2022-11-02T17:30:35.906Z,8.15
2022-11-02T17:33:13.665Z,8.06
2022-11-02T17:35:50.687Z,7.98
2022-11-02T17:38:20.061Z,7.89
2022-11-02T17:40:52.102Z,7.79
2022-11-02T17:43:22.919Z,7.72
2022-11-02T17:45:57.504Z,7.64
2022-11-02T17:48:24.974Z,7.54
2022-11-02T17:50:56.053Z,7.46
2022-11-02T17:53:24.099Z,7.40
2022-11-02T17:55:50.726Z,7.33
2022-11-02T17:58:17.638Z,7.22
2022-11-02T18:00:44.596Z,7.17
2022-11-02T18:03:20.261Z,7.32
2022-11-02T18:05:50.970Z,7.14
2022-11-02T18:08:19.548Z,7.10
2022-11-02T18:10:48.063Z,7.06
2022-11-02T18:13:18.222Z,7.01
2022-11-02T18:15:45.297Z,6.97
2022-11-02T18:18:12.043Z,6.91
2022-11-02T18:20:41.869Z,6.84
2022-11-02T18:23:15.577Z,6.77
2022-11-02T18:25:42.367Z,6.75
2022-11-02T18:28:09.177Z,6.64
2022-11-02T18:30:35.972Z,6.60
2022-11-02T18:33:02.954Z,6.52
2022-11-02T18:35:29.806Z,6.48
2022-11-02T18:37:56.728Z,6.43
2022-11-02T18:40:23.362Z,6.39
2022-11-02T18:42:50.037Z,6.34
2022-11-02T18:45:16.849Z,6.29
2022-11-02T18:47:43.884Z,6.23
2022-11-02T18:50:20.585Z,6.55
2022-11-02T18:52:49.696Z,6.30
2022-11-02T18:55:17.206Z,6.23
2022-11-02T18:57:50.613Z,6.15
2022-11-02T19:00:17.532Z,6.09
2022-11-02T19:02:44.132Z,6.25
2022-11-02T19:05:30.709Z,6.08
2022-11-02T19:08:19.292Z,5.97
2022-11-02T19:10:50.120Z,5.89
2022-11-02T19:13:16.870Z,5.86
2022-11-02T19:15:43.529Z,5.88
2022-11-02T19:18:10.118Z,5.82
2022-11-02T19:20:36.798Z,5.77
2022-11-02T19:23:03.507Z,5.67
2022-11-02T19:25:30.070Z,5.69
2022-11-02T19:27:56.911Z,5.69
2022-11-02T19:30:23.467Z,5.61
2022-11-02T19:32:50.030Z,5.47
2022-11-02T19:35:16.709Z,5.46
2022-11-02T19:37:43.268Z,5.41
2022-11-02T19:40:10.590Z,5.37
2022-11-02T19:42:37.155Z,5.37
2022-11-02T19:45:03.966Z,5.28
2022-11-02T19:47:30.553Z,5.27
2022-11-02T19:49:57.123Z,5.23
2022-11-02T19:52:23.930Z,5.21
2022-11-02T19:54:50.550Z,5.13
2022-11-02T19:57:17.103Z,5.17
2022-11-02T19:59:43.678Z,5.13
2022-11-02T20:02:11.253Z,5.08
2022-11-02T20:04:42.145Z,5.06
2022-11-02T20:07:09.191Z,5.02
2022-11-02T20:09:36.117Z,4.99
2022-11-02T20:12:04.304Z,4.91
2022-11-02T20:14:31.065Z,4.95
2022-11-02T20:17:04.503Z,4.99
2022-11-02T20:19:44.215Z,4.94
2022-11-02T20:22:10.879Z,4.95
2022-11-02T20:24:37.508Z,4.85
2022-11-02T20:27:06.634Z,4.78
2022-11-02T20:29:37.377Z,4.70
2022-11-02T20:32:10.441Z,4.67
2022-11-02T20:34:37.442Z,4.64
2022-11-02T20:37:06.239Z,4.58
2022-11-02T20:39:33.479Z,4.55
2022-11-02T20:42:00.653Z,4.53
2022-11-02T20:44:30.026Z,4.51
2022-11-02T20:46:56.723Z,4.52
2022-11-02T20:49:48.950Z,4.48
2022-11-02T20:52:13.655Z,4.49
2022-11-02T20:54:42.372Z,4.55
2022-11-02T20:57:12.153Z,4.51
2022-11-02T20:59:41.371Z,4.49
2022-11-02T21:02:13.607Z,4.50
2022-11-02T21:04:40.580Z,4.53
2022-11-02T21:07:08.073Z,4.48
2022-11-02T21:09:35.438Z,4.48
2022-11-02T21:12:20.982Z,4.49
2022-11-02T21:14:48.055Z,4.51
2022-11-02T21:17:15.694Z,4.47
2022-11-02T21:19:42.732Z,4.36
2022-11-02T21:22:09.512Z,4.50
2022-11-02T21:24:36.171Z,4.41
2022-11-02T21:27:05.808Z,4.35
2022-11-02T21:29:33.554Z,4.26
2022-11-02T21:32:00.731Z,4.29
2022-11-02T21:34:27.406Z,4.24
2022-11-02T21:36:54.172Z,4.24
2022-11-02T21:39:24.477Z,4.17
2022-11-02T21:41:54.079Z,4.15
2022-11-02T21:44:20.754Z,4.17
2022-11-02T21:46:50.572Z,4.21
2022-11-02T21:49:17.292Z,4.16
2022-11-02T21:51:43.936Z,4.10
2022-11-02T21:54:11.450Z,4.09
2022-11-02T21:56:38.484Z,4.08
2022-11-02T21:59:11.268Z,4.00
2022-11-02T22:01:44.810Z,4.06
2022-11-02T22:04:24.992Z,4.03
2022-11-02T22:06:52.339Z,4.02
2022-11-02T22:09:22.692Z,3.99
2022-11-02T22:12:09.406Z,3.93
2022-11-02T22:14:37.210Z,3.96
2022-11-02T22:17:16.028Z,3.94
2022-11-02T22:19:50.922Z,3.88
2022-11-02T22:22:20.847Z,3.82
2022-11-02T22:24:47.788Z,3.72
2022-11-02T22:27:14.727Z,3.79
2022-11-02T22:32:56.941Z,3.72
2022-11-02T22:35:23.571Z,3.75
2022-11-02T22:38:08.688Z,3.66
2022-11-02T22:40:35.314Z,3.70
2022-11-02T22:43:01.983Z,3.58
2022-11-02T22:45:28.583Z,3.64
2022-11-02T22:47:55.315Z,3.53
2022-11-02T22:50:23.801Z,3.54
2022-11-02T22:52:55.048Z,3.54
2022-11-02T22:55:23.753Z,3.48
2022-11-02T22:57:58.769Z,3.46
2022-11-02T23:00:26.675Z,3.50
2022-11-02T23:02:53.343Z,3.44
2022-11-02T23:05:19.996Z,3.47
2022-11-02T23:07:46.610Z,3.42
2022-11-02T23:10:33.261Z,3.50
2022-11-02T23:12:59.962Z,3.48
2022-11-02T23:15:26.643Z,3.41
2022-11-02T23:17:53.767Z,3.38
2022-11-02T23:20:20.359Z,3.28
2022-11-02T23:22:46.995Z,3.30
2022-11-02T23:25:18.185Z,3.26
2022-11-02T23:28:06.068Z,3.31
2022-11-02T23:30:56.049Z,3.34
2022-11-02T23:33:27.806Z,3.33
2022-11-02T23:36:13.796Z,3.28
2022-11-02T23:39:02.436Z,3.25
2022-11-02T23:41:30.671Z,3.26
2022-11-02T23:44:14.268Z,3.23
2022-11-02T23:46:42.992Z,3.16
2022-11-02T23:49:10.466Z,3.10
2022-11-02T23:51:56.049Z,3.09
2022-11-02T23:54:41.660Z,3.07
2022-11-02T23:57:08.322Z,3.03
2022-11-02T23:59:34.974Z,2.96
